Time;durP1;ratioP1;P1;durP2;ratioP2;P2;SDS_P1;SDS_P2;PMS_P1;PMS_P2;Temp;Humidity;BMP_temperature;BMP_pressure;BME280_temperature;BME280_humidity;BME280_pressure;Samples;Min_cycle;Max_cycle;Signal;HPM_P1;HPM_P2
2022/01/23 00:00:33;;;;;;;21.35;8.50;;;;;;;;;;4036180;28;10002045;-74
2022/01/23 00:03:07;;;;;;;24.52;8.80;;;;;;;;;;2094281;28;10001949;-74
2022/01/23 00:05:39;;;;;;;22.60;8.10;;;;;;;;;;5061210;28;20409;-74
2022/01/23 00:08:08;;;;;;;25.27;8.85;;;;;;;;;;5063829;28;20076;-74
2022/01/23 00:10:37;;;;;;;22.88;9.05;;;;;;;;;;5068303;28;20084;-74
2022/01/23 00:13:11;;;;;;;24.80;9.80;;;;;;;;;;5061960;28;20044;-74
2022/01/23 00:18:28;;;;;;;24.20;8.38;;;;;;;;;;5067508;28;20076;-75
2022/01/23 00:20:57;;;;;;;26.48;8.93;;;;;;;;;;5060520;28;20049;-74
2022/01/23 00:23:33;;;;;;;24.67;9.10;;;;;;;;;;5064700;28;20127;-74
2022/01/23 00:31:36;;;;;;;27.73;9.05;;;;;;;;;;5066884;28;20132;-73
2022/01/23 00:34:06;;;;;;;25.08;9.32;;;;;;;;;;5058761;28;20049;-74
2022/01/23 00:36:35;;;;;;;23.52;8.40;;;;;;;;;;5057108;28;20400;-74
2022/01/23 00:39:03;;;;;;;23.15;7.90;;;;;;;;;;5067751;28;20523;-74
2022/01/23 00:41:32;;;;;;;24.17;8.57;;;;;;;;;;5060460;28;20079;-74
2022/01/23 00:44:02;;;;;;;21.00;8.48;;;;;;;;;;5056648;28;20067;-74
2022/01/23 00:46:34;;;;;;;21.35;7.60;;;;;;;;;;5061254;28;20506;-74
2022/01/23 00:49:25;;;;;;;21.10;9.00;;;;;;;;;;5067340;28;20140;-74
2022/01/23 00:51:54;;;;;;;23.50;8.48;;;;;;;;;;5065681;28;20576;-74
2022/01/23 00:54:24;;;;;;;22.10;9.68;;;;;;;;;;5068355;28;20584;-74
2022/01/23 00:56:52;;;;;;;18.27;7.75;;;;;;;;;;5067825;28;20049;-74
2022/01/23 00:59:22;;;;;;;24.35;9.48;;;;;;;;;;5065755;28;20052;-74
2022/01/23 01:02:01;;;;;;;25.25;7.90;;;;;;;;;;3940812;28;10001966;-74
2022/01/23 01:04:29;;;;;;;28.00;8.70;;;;;;;;;;2096814;28;10002060;-74
2022/01/23 01:06:58;;;;;;;23.35;8.15;;;;;;;;;;5070145;28;20479;-73
2022/01/23 01:09:27;;;;;;;21.65;8.45;;;;;;;;;;5056533;28;20049;-73
2022/01/23 01:11:58;;;;;;;23.88;9.15;;;;;;;;;;5068265;28;20467;-73
2022/01/23 01:14:41;;;;;;;24.73;8.18;;;;;;;;;;5065782;28;20123;-73
2022/01/23 01:17:16;;;;;;;20.25;8.20;;;;;;;;;;5061282;28;20551;-73
2022/01/23 01:31:06;;;;;;;21.17;7.82;;;;;;;;;;5066522;28;20049;-73
2022/01/23 01:33:43;;;;;;;22.80;8.05;;;;;;;;;;5065633;28;20106;-73
2022/01/23 01:36:23;;;;;;;28.00;8.93;;;;;;;;;;5059390;28;20069;-73
2022/01/23 01:38:52;;;;;;;22.60;7.65;;;;;;;;;;5052596;28;20109;-73
2022/01/23 01:41:21;;;;;;;23.63;8.00;;;;;;;;;;5065336;28;20522;-73
2022/01/23 01:43:50;;;;;;;20.58;7.80;;;;;;;;;;5066896;28;20131;-73
2022/01/23 01:46:20;;;;;;;25.08;7.97;;;;;;;;;;5065482;28;20513;-73
2022/01/23 01:48:48;;;;;;;18.30;7.45;;;;;;;;;;5069869;28;20108;-73
2022/01/23 01:51:18;;;;;;;27.17;7.78;;;;;;;;;;5067912;28;20055;-73
2022/01/23 01:53:51;;;;;;;20.52;7.53;;;;;;;;;;5066248;28;20131;-73
2022/01/23 01:56:19;;;;;;;19.42;7.50;;;;;;;;;;5063657;28;20095;-73
2022/01/23 01:59:15;;;;;;;16.35;7.80;;;;;;;;;;5067807;28;20088;-73
2022/01/23 02:10:23;;;;;;;18.63;7.65;;;;;;;;;;5059543;28;21656;-73
2022/01/23 02:13:04;;;;;;;22.88;8.20;;;;;;;;;;5058894;28;20139;-73
2022/01/23 02:15:58;;;;;;;20.35;7.85;;;;;;;;;;5055416;28;20131;-72
2022/01/23 02:22:26;;;;;;;18.10;8.18;;;;;;;;;;5059276;28;20076;-73
2022/01/23 02:24:47;;;;;;;18.67;7.32;;;;;;;;;;5056961;28;20128;-72
2022/01/23 02:52:45;;;;;;;21.45;9.13;;;;;;;;;;5064562;28;20152;-72
2022/01/23 02:55:20;;;;;;;22.92;8.25;;;;;;;;;;5057490;28;20448;-72
2022/01/23 02:57:54;;;;;;;19.90;8.70;;;;;;;;;;5057821;28;20083;-72
2022/01/23 03:00:26;;;;;;;25.60;10.40;;;;;;;;;;5068482;28;20056;-72
2022/01/23 03:03:01;;;;;;;26.48;8.55;;;;;;;;;;5066863;28;20051;-72
2022/01/23 03:05:37;;;;;;;22.63;7.60;;;;;;;;;;5062867;28;20417;-72
2022/01/23 03:08:19;;;;;;;21.23;8.80;;;;;;;;;;5061508;28;20131;-72
2022/01/23 03:11:00;;;;;;;24.23;8.55;;;;;;;;;;5052074;28;20148;-72
2022/01/23 03:13:49;;;;;;;23.60;8.68;;;;;;;;;;5051497;28;20141;-72
2022/01/23 03:24:45;;;;;;;22.98;7.75;;;;;;;;;;5058021;28;20147;-72
2022/01/23 03:27:38;;;;;;;23.85;8.00;;;;;;;;;;5060873;28;20135;-72
2022/01/23 03:30:17;;;;;;;22.92;7.93;;;;;;;;;;5057600;28;20083;-72
2022/01/23 03:32:47;;;;;;;23.13;8.57;;;;;;;;;;5059879;28;20049;-72
2022/01/23 03:35:17;;;;;;;25.05;8.13;;;;;;;;;;5061835;28;20489;-72
2022/01/23 03:37:46;;;;;;;26.67;8.23;;;;;;;;;;5063027;28;20071;-72
2022/01/23 03:40:14;;;;;;;21.67;9.00;;;;;;;;;;5062923;28;20049;-72
2022/01/23 03:42:46;;;;;;;19.98;7.38;;;;;;;;;;5062133;28;20515;-72
2022/01/23 03:45:37;;;;;;;21.02;8.50;;;;;;;;;;5058585;28;20477;-72
2022/01/23 03:50:49;;;;;;;24.35;8.05;;;;;;;;;;5056055;28;20075;-72
2022/01/23 03:53:17;;;;;;;18.88;7.60;;;;;;;;;;5056593;28;20079;-72
2022/01/23 03:55:46;;;;;;;20.75;7.75;;;;;;;;;;5057176;28;20564;-72
2022/01/23 03:58:15;;;;;;;19.45;7.82;;;;;;;;;;5062758;28;20048;-72
2022/01/23 04:00:43;;;;;;;23.60;8.10;;;;;;;;;;5056469;28;20049;-72
2022/01/23 04:03:15;;;;;;;22.35;8.68;;;;;;;;;;5058401;28;20515;-72
2022/01/23 04:05:50;;;;;;;21.45;8.00;;;;;;;;;;438127;28;10022843;-72
2022/01/23 04:08:18;;;;;;;20.35;7.55;;;;;;;;;;5050811;28;20348;-72
2022/01/23 04:10:46;;;;;;;17.30;6.38;;;;;;;;;;5056987;28;20653;-72
2022/01/23 04:13:21;;;;;;;20.85;8.00;;;;;;;;;;5062191;28;20084;-72
2022/01/23 04:16:08;;;;;;;;;;;;;;;;;;5059634;28;20049;-72
2022/01/23 04:19:12;;;;;;;16.13;6.50;;;;;;;;;;5059410;28;19960;-72
2022/01/23 04:33:11;;;;;;;16.65;6.50;;;;;;;;;;5060527;28;20068;-72
2022/01/23 04:45:09;;;;;;;15.63;6.30;;;;;;;;;;5058773;28;20103;-72
2022/01/23 05:00:51;;;;;;;13.35;6.15;;;;;;;;;;5057691;28;20124;-72
2022/01/23 05:06:09;;;;;;;15.88;6.05;;;;;;;;;;5053002;28;20155;-72
2022/01/23 05:08:38;;;;;;;17.95;7.25;;;;;;;;;;5065137;28;20152;-73
2022/01/23 05:11:08;;;;;;;15.18;6.40;;;;;;;;;;5057769;28;20072;-72
2022/01/23 05:13:36;;;;;;;13.98;5.93;;;;;;;;;;5057176;28;20080;-72
2022/01/23 05:16:08;;;;;;;19.95;7.13;;;;;;;;;;5054321;28;20139;-72
2022/01/23 05:18:38;;;;;;;15.65;6.60;;;;;;;;;;5057500;28;20052;-72
2022/01/23 05:21:38;;;;;;;15.90;5.88;;;;;;;;;;5059219;28;20057;-72
2022/01/23 05:24:07;;;;;;;14.27;6.50;;;;;;;;;;5057802;28;20049;-72
2022/01/23 05:26:42;;;;;;;14.30;6.07;;;;;;;;;;5058985;28;20075;-73
2022/01/23 05:29:10;;;;;;;20.08;6.68;;;;;;;;;;5055388;28;20136;-72
2022/01/23 05:31:39;;;;;;;16.02;6.50;;;;;;;;;;5053706;28;20072;-73
2022/01/23 05:34:08;;;;;;;13.70;6.00;;;;;;;;;;5056582;28;20128;-73
2022/01/23 05:36:37;;;;;;;16.48;6.43;;;;;;;;;;5057346;28;20045;-72
2022/01/23 05:39:05;;;;;;;17.52;6.75;;;;;;;;;;5056532;28;20068;-73
2022/01/23 05:41:34;;;;;;;13.85;5.80;;;;;;;;;;5049736;28;20163;-73
2022/01/23 05:44:02;;;;;;;14.68;5.53;;;;;;;;;;5058222;28;20053;-73
2022/01/23 05:46:30;;;;;;;14.75;6.38;;;;;;;;;;5059305;28;20313;-73
2022/01/23 05:48:59;;;;;;;16.83;6.00;;;;;;;;;;5057062;28;20068;-73
2022/01/23 05:51:28;;;;;;;9.88;5.13;;;;;;;;;;5057361;28;20144;-73
2022/01/23 05:53:57;;;;;;;14.80;5.70;;;;;;;;;;5058880;28;20053;-73
2022/01/23 05:56:25;;;;;;;14.43;5.53;;;;;;;;;;5055401;28;20080;-73
2022/01/23 05:58:53;;;;;;;14.27;6.22;;;;;;;;;;5047999;28;20088;-74
2022/01/23 06:01:22;;;;;;;16.08;7.03;;;;;;;;;;5061184;28;20056;-74
2022/01/23 06:04:01;;;;;;;13.65;5.75;;;;;;;;;;4283767;28;10001627;-73
2022/01/23 06:06:30;;;;;;;16.70;5.75;;;;;;;;;;1392117;28;10002042;-73
2022/01/23 06:08:58;;;;;;;15.73;6.20;;;;;;;;;;5055582;28;20143;-73
2022/01/23 06:11:27;;;;;;;12.38;5.72;;;;;;;;;;5057396;28;20045;-73
2022/01/23 06:13:55;;;;;;;16.30;6.53;;;;;;;;;;5052767;28;20041;-71
2022/01/23 06:16:23;;;;;;;14.80;5.82;;;;;;;;;;5054187;28;20079;-71
2022/01/23 06:18:52;;;;;;;16.67;6.03;;;;;;;;;;5063169;28;20048;-72
2022/01/23 06:21:21;;;;;;;15.68;6.15;;;;;;;;;;5059171;28;20048;-72
2022/01/23 06:24:00;;;;;;;17.58;7.20;;;;;;;;;;5052400;28;20150;-72
2022/01/23 06:26:34;;;;;;;14.88;6.20;;;;;;;;;;5059146;28;20071;-72
2022/01/23 06:29:03;;;;;;;16.98;7.18;;;;;;;;;;5051122;28;20056;-72
2022/01/23 06:31:31;;;;;;;17.98;6.38;;;;;;;;;;5057367;28;20127;-72
2022/01/23 06:34:01;;;;;;;19.48;6.25;;;;;;;;;;5064278;28;20127;-72
2022/01/23 06:36:29;;;;;;;13.68;5.95;;;;;;;;;;5053141;28;20136;-72
2022/01/23 06:38:59;;;;;;;17.88;6.68;;;;;;;;;;5061591;28;20095;-72
2022/01/23 06:41:27;;;;;;;15.23;6.57;;;;;;;;;;5057573;28;20049;-72
2022/01/23 06:43:56;;;;;;;14.70;6.47;;;;;;;;;;5067467;28;20083;-72
2022/01/23 06:46:24;;;;;;;16.20;6.72;;;;;;;;;;5066909;28;20052;-72
2022/01/23 06:48:52;;;;;;;15.25;6.55;;;;;;;;;;5066434;28;20466;-71
2022/01/23 06:51:21;;;;;;;19.02;6.95;;;;;;;;;;5054700;28;20053;-72
2022/01/23 06:53:49;;;;;;;15.73;6.13;;;;;;;;;;5055882;28;20132;-72
2022/01/23 06:56:19;;;;;;;16.92;7.50;;;;;;;;;;5053949;28;20162;-72
2022/01/23 06:58:48;;;;;;;17.23;7.25;;;;;;;;;;5055883;28;20048;-72
2022/01/23 07:01:16;;;;;;;12.23;5.88;;;;;;;;;;5064549;28;20123;-71
2022/01/23 07:03:45;;;;;;;17.08;6.57;;;;;;;;;;5063287;28;20416;-72
2022/01/23 07:06:14;;;;;;;15.20;7.07;;;;;;;;;;5056674;28;20047;-72
2022/01/23 07:09:02;;;;;;;17.38;7.35;;;;;;;;;;5061104;28;20049;-72
2022/01/23 07:11:32;;;;;;;18.88;7.10;;;;;;;;;;5061677;28;20052;-73
2022/01/23 07:14:00;;;;;;;15.60;7.03;;;;;;;;;;5057777;28;20056;-72
2022/01/23 07:16:29;;;;;;;16.42;7.28;;;;;;;;;;5056049;28;20052;-73
2022/01/23 07:18:58;;;;;;;18.02;7.75;;;;;;;;;;5061661;28;20049;-72
2022/01/23 07:21:26;;;;;;;16.05;7.25;;;;;;;;;;5058969;28;20087;-72
2022/01/23 07:23:54;;;;;;;17.25;7.20;;;;;;;;;;5065745;28;20106;-72
2022/01/23 07:26:25;;;;;;;16.50;7.18;;;;;;;;;;5060757;28;20041;-72
2022/01/23 07:28:57;;;;;;;22.05;7.53;;;;;;;;;;5066495;28;20495;-72
2022/01/23 07:31:44;;;;;;;19.92;8.15;;;;;;;;;;5063399;28;20084;-72
2022/01/23 07:34:18;;;;;;;17.65;7.70;;;;;;;;;;5054789;28;20828;-73
2022/01/23 07:36:46;;;;;;;16.45;6.43;;;;;;;;;;5070151;28;20048;-73
2022/01/23 07:39:14;;;;;;;15.52;6.85;;;;;;;;;;5050490;28;20093;-73
2022/01/23 07:41:43;;;;;;;21.23;7.35;;;;;;;;;;5067518;28;20570;-73
2022/01/23 07:44:14;;;;;;;19.20;7.63;;;;;;;;;;5065674;28;20136;-73
2022/01/23 07:46:42;;;;;;;21.98;7.80;;;;;;;;;;5051082;28;20391;-73
2022/01/23 07:49:11;;;;;;;16.48;7.18;;;;;;;;;;5073059;28;20044;-73
2022/01/23 07:51:39;;;;;;;20.40;7.85;;;;;;;;;;5068643;28;20121;-73
2022/01/23 07:54:08;;;;;;;18.55;7.78;;;;;;;;;;5072684;28;20135;-73
2022/01/23 07:56:38;;;;;;;20.45;7.70;;;;;;;;;;5072800;28;20135;-73
2022/01/23 07:59:07;;;;;;;17.88;7.32;;;;;;;;;;5069972;28;20088;-73
2022/01/23 08:01:39;;;;;;;19.65;7.50;;;;;;;;;;5075858;28;20188;-73
2022/01/23 08:04:09;;;;;;;16.70;7.35;;;;;;;;;;3651881;28;10020765;-74
2022/01/23 08:06:45;;;;;;;19.02;7.60;;;;;;;;;;2096346;28;10002162;-73
2022/01/23 08:09:15;;;;;;;19.50;8.55;;;;;;;;;;5068237;28;20527;-73
2022/01/23 08:11:43;;;;;;;19.73;8.05;;;;;;;;;;5076031;28;20136;-73
2022/01/23 08:14:12;;;;;;;17.90;7.72;;;;;;;;;;5076960;28;20867;-73
2022/01/23 08:16:42;;;;;;;19.42;7.57;;;;;;;;;;5073749;28;20898;-73
2022/01/23 08:19:10;;;;;;;20.90;8.50;;;;;;;;;;5074560;28;20148;-73
2022/01/23 08:21:38;;;;;;;18.00;7.68;;;;;;;;;;5070659;28;20146;-73
2022/01/23 08:24:07;;;;;;;16.80;8.13;;;;;;;;;;5078050;28;20535;-73
2022/01/23 08:26:36;;;;;;;19.40;8.05;;;;;;;;;;5068259;28;20055;-73
2022/01/23 08:29:05;;;;;;;20.33;8.10;;;;;;;;;;5079643;28;20057;-73
2022/01/23 08:31:33;;;;;;;21.00;8.05;;;;;;;;;;5064249;28;20076;-73
2022/01/23 08:34:03;;;;;;;18.08;7.82;;;;;;;;;;5052392;28;20083;-73
2022/01/23 08:36:33;;;;;;;20.65;8.88;;;;;;;;;;5059279;28;20084;-73
2022/01/23 08:39:01;;;;;;;20.77;8.07;;;;;;;;;;5057418;28;20049;-73
2022/01/23 08:44:16;;;;;;;22.05;8.10;;;;;;;;;;5057897;28;20059;-73
2022/01/23 08:46:44;;;;;;;20.02;8.13;;;;;;;;;;5068801;28;20049;-73
2022/01/23 08:49:15;;;;;;;20.52;7.72;;;;;;;;;;5055104;28;20063;-73
2022/01/23 08:51:44;;;;;;;21.73;8.65;;;;;;;;;;5068194;28;20496;-73
2022/01/23 08:54:12;;;;;;;20.17;7.88;;;;;;;;;;5063936;28;20040;-73
2022/01/23 08:56:41;;;;;;;20.27;7.72;;;;;;;;;;5052592;28;21292;-73
2022/01/23 08:59:09;;;;;;;18.60;8.05;;;;;;;;;;5061471;28;20571;-73
2022/01/23 09:01:37;;;;;;;22.40;9.32;;;;;;;;;;5066361;28;20060;-73
2022/01/23 09:04:07;;;;;;;24.05;8.50;;;;;;;;;;5065649;28;20060;-73
2022/01/23 09:06:37;;;;;;;18.05;7.65;;;;;;;;;;5053700;28;20160;-73
2022/01/23 09:09:07;;;;;;;23.67;8.20;;;;;;;;;;5057304;28;20132;-73
2022/01/23 09:11:53;;;;;;;25.30;9.05;;;;;;;;;;5066024;28;20075;-73
2022/01/23 09:14:21;;;;;;;20.33;8.00;;;;;;;;;;5057056;28;20052;-73
2022/01/23 09:16:50;;;;;;;20.35;8.68;;;;;;;;;;5064656;28;20052;-73
2022/01/23 09:19:20;;;;;;;24.70;9.30;;;;;;;;;;5055986;28;20695;-73
2022/01/23 09:21:50;;;;;;;24.40;9.80;;;;;;;;;;5060443;28;20048;-73
2022/01/23 09:24:19;;;;;;;22.92;9.15;;;;;;;;;;5063674;28;20072;-73
2022/01/23 09:26:52;;;;;;;18.48;8.20;;;;;;;;;;5053915;28;20087;-73
2022/01/23 09:29:30;;;;;;;22.05;8.15;;;;;;;;;;5081703;28;20103;-73
2022/01/23 09:31:58;;;;;;;23.60;8.88;;;;;;;;;;5053546;28;20054;-73
2022/01/23 09:34:28;;;;;;;22.50;9.18;;;;;;;;;;5071852;28;20059;-73
2022/01/23 09:36:59;;;;;;;20.30;8.43;;;;;;;;;;5050122;28;20102;-73
2022/01/23 09:39:27;;;;;;;23.15;8.70;;;;;;;;;;5073532;28;20104;-73
2022/01/23 09:42:00;;;;;;;20.40;8.90;;;;;;;;;;5066700;28;20041;-73
2022/01/23 09:44:31;;;;;;;21.17;8.75;;;;;;;;;;5052557;28;20044;-72
2022/01/23 09:46:59;;;;;;;19.02;9.02;;;;;;;;;;5074974;28;20040;-73
2022/01/23 09:49:31;;;;;;;22.88;9.70;;;;;;;;;;5074246;28;20129;-73
2022/01/23 09:52:04;;;;;;;22.92;8.43;;;;;;;;;;5072535;28;20360;-73
2022/01/23 09:54:33;;;;;;;21.48;8.45;;;;;;;;;;5065150;28;20492;-73
2022/01/23 09:57:02;;;;;;;18.70;7.35;;;;;;;;;;5063543;28;20048;-73
2022/01/23 09:59:31;;;;;;;21.92;8.82;;;;;;;;;;5064030;28;20060;-73
2022/01/23 10:02:01;;;;;;;21.63;7.80;;;;;;;;;;5058218;28;20055;-74
2022/01/23 10:04:34;;;;;;;20.05;8.05;;;;;;;;;;3706174;28;10020676;-74
2022/01/23 10:07:05;;;;;;;19.83;7.88;;;;;;;;;;1743623;28;10001990;-73
2022/01/23 10:09:35;;;;;;;24.23;9.43;;;;;;;;;;5056430;28;20080;-73
2022/01/23 10:12:03;;;;;;;20.20;7.90;;;;;;;;;;5059103;28;20136;-73
2022/01/23 10:14:32;;;;;;;19.25;8.05;;;;;;;;;;5073158;28;20076;-73
2022/01/23 10:17:01;;;;;;;17.17;7.43;;;;;;;;;;5058164;28;20493;-73
2022/01/23 10:19:29;;;;;;;21.70;8.55;;;;;;;;;;5073050;28;20095;-73
2022/01/23 10:22:00;;;;;;;20.85;8.35;;;;;;;;;;5068521;28;20110;-72
2022/01/23 10:24:30;;;;;;;18.35;8.20;;;;;;;;;;5056566;28;20107;-72
2022/01/23 10:26:59;;;;;;;21.00;7.60;;;;;;;;;;5075912;28;20056;-73
2022/01/23 10:29:31;;;;;;;18.40;7.43;;;;;;;;;;5066833;28;20584;-72
2022/01/23 10:32:07;;;;;;;21.42;8.85;;;;;;;;;;5069533;28;20103;-73
2022/01/23 10:34:50;;;;;;;18.95;7.97;;;;;;;;;;5063857;28;20476;-73
2022/01/23 10:37:26;;;;;;;23.88;8.30;;;;;;;;;;5069419;28;20053;-73
2022/01/23 10:40:05;;;;;;;19.15;8.63;;;;;;;;;;5067631;28;20045;-72
2022/01/23 10:48:27;;;;;;;23.33;9.50;;;;;;;;;;5081149;28;20115;-72
2022/01/23 10:51:16;;;;;;;18.63;8.50;;;;;;;;;;5072986;28;20059;-72
2022/01/23 10:54:03;;;;;;;21.80;8.38;;;;;;;;;;5075272;28;20087;-72
2022/01/23 10:56:33;;;;;;;22.55;8.57;;;;;;;;;;5063707;28;20060;-72
2022/01/23 10:59:02;;;;;;;19.70;8.35;;;;;;;;;;5056514;28;20051;-72
2022/01/23 11:01:31;;;;;;;22.95;9.07;;;;;;;;;;5054586;28;20554;-72
2022/01/23 11:04:11;;;;;;;21.23;8.73;;;;;;;;;;5061053;28;20068;-72
2022/01/23 11:06:52;;;;;;;22.40;8.80;;;;;;;;;;5059285;28;20090;-72
2022/01/23 11:09:25;;;;;;;23.77;9.13;;;;;;;;;;5065765;28;20486;-72
2022/01/23 11:12:01;;;;;;;21.25;8.85;;;;;;;;;;5061080;28;20126;-72
2022/01/23 11:17:23;;;;;;;20.10;8.73;;;;;;;;;;5067151;28;20147;-72
2022/01/23 11:19:53;;;;;;;23.45;9.38;;;;;;;;;;5065621;28;20113;-72
2022/01/23 11:22:23;;;;;;;23.77;8.18;;;;;;;;;;5060356;28;20507;-72
2022/01/23 11:24:52;;;;;;;20.35;8.13;;;;;;;;;;5062701;28;20080;-72
2022/01/23 11:27:23;;;;;;;21.63;8.88;;;;;;;;;;5050400;28;20310;-72
2022/01/23 11:30:00;;;;;;;22.27;9.73;;;;;;;;;;5050674;28;20592;-72
2022/01/23 11:32:35;;;;;;;20.30;8.55;;;;;;;;;;5063883;28;20045;-72
2022/01/23 11:35:07;;;;;;;22.48;8.38;;;;;;;;;;5050065;28;20127;-72
2022/01/23 11:37:39;;;;;;;22.27;8.80;;;;;;;;;;5060891;28;20045;-72
2022/01/23 11:40:26;;;;;;;22.30;7.85;;;;;;;;;;5055963;28;20080;-72
2022/01/23 11:54:16;;;;;;;22.48;9.40;;;;;;;;;;5049309;28;20433;-72
2022/01/23 11:56:47;;;;;;;20.85;8.43;;;;;;;;;;5054948;28;20124;-73
2022/01/23 11:59:33;;;;;;;23.08;8.63;;;;;;;;;;5056437;28;20114;-72
2022/01/23 12:02:28;;;;;;;22.88;8.48;;;;;;;;;;5061385;28;20052;-73
2022/01/23 12:05:12;;;;;;;18.40;7.22;;;;;;;;;;5049639;28;20053;-72
2022/01/23 12:07:41;;;;;;;19.63;7.82;;;;;;;;;;5065597;28;20147;-72
2022/01/23 12:10:17;;;;;;;21.65;7.65;;;;;;;;;;5061406;28;20532;-72
2022/01/23 12:12:48;;;;;;;23.40;8.80;;;;;;;;;;5067440;28;20076;-71
2022/01/23 12:18:19;;;;;;;22.08;7.97;;;;;;;;;;5064333;28;20043;-72
2022/01/23 12:20:48;;;;;;;13.38;6.15;;;;;;;;;;5059102;28;20060;-72
2022/01/23 12:23:17;;;;;;;16.83;6.22;;;;;;;;;;5066250;28;20132;-72
2022/01/23 12:25:46;;;;;;;20.25;7.38;;;;;;;;;;5071144;28;20373;-72
2022/01/23 12:28:21;;;;;;;19.33;7.40;;;;;;;;;;5060115;28;20354;-72
2022/01/23 12:30:51;;;;;;;14.48;5.60;;;;;;;;;;5058191;28;20044;-72
2022/01/23 12:33:26;;;;;;;12.15;5.05;;;;;;;;;;5070620;28;20480;-72
2022/01/23 12:35:56;;;;;;;13.13;5.55;;;;;;;;;;5061948;28;20040;-72
2022/01/23 12:38:29;;;;;;;17.83;6.97;;;;;;;;;;5059991;28;20077;-73
2022/01/23 12:41:14;;;;;;;18.50;6.60;;;;;;;;;;5054629;28;20124;-71
2022/01/23 12:43:42;;;;;;;16.58;7.20;;;;;;;;;;5056415;28;20415;-72
2022/01/23 12:46:16;;;;;;;18.45;6.85;;;;;;;;;;5061144;28;20108;-73
2022/01/23 12:48:48;;;;;;;18.40;6.97;;;;;;;;;;5062554;28;20048;-73
2022/01/23 12:51:32;;;;;;;12.55;4.90;;;;;;;;;;5061606;28;20045;-73
2022/01/23 12:54:24;;;;;;;14.13;6.03;;;;;;;;;;5066660;28;20106;-72
2022/01/23 12:56:52;;;;;;;12.23;5.70;;;;;;;;;;5032803;28;20486;-73
2022/01/23 12:59:30;;;;;;;15.73;6.72;;;;;;;;;;5063829;28;20761;-72
2022/01/23 13:02:06;;;;;;;16.90;6.97;;;;;;;;;;5068225;28;20062;-72
2022/01/23 13:04:38;;;;;;;14.43;5.93;;;;;;;;;;5067879;28;20156;-71
2022/01/23 13:07:14;;;;;;;13.90;5.97;;;;;;;;;;5064455;28;20040;-71
2022/01/23 13:09:50;;;;;;;13.57;5.57;;;;;;;;;;5063770;28;20057;-71
2022/01/23 13:12:33;;;;;;;16.23;6.13;;;;;;;;;;5063747;28;20048;-71
2022/01/23 13:15:12;;;;;;;17.90;6.88;;;;;;;;;;5064860;28;20094;-71
2022/01/23 13:17:50;;;;;;;18.00;7.65;;;;;;;;;;5056847;28;20140;-72
2022/01/23 13:32:16;;;;;;;16.17;6.80;;;;;;;;;;5041461;28;20063;-71
2022/01/23 13:34:49;;;;;;;17.60;7.50;;;;;;;;;;5046717;28;20041;-73
2022/01/23 13:37:19;;;;;;;14.20;6.25;;;;;;;;;;5035016;28;20041;-73
2022/01/23 13:39:52;;;;;;;16.58;7.07;;;;;;;;;;5043931;28;20205;-71
2022/01/23 13:42:46;;;;;;;18.45;7.57;;;;;;;;;;5041839;28;20056;-71
2022/01/23 13:48:51;;;;;;;18.50;7.43;;;;;;;;;;5035623;28;20053;-72
2022/01/23 13:51:32;;;;;;;19.75;8.63;;;;;;;;;;5044166;28;20084;-72
2022/01/23 13:57:31;;;;;;;19.98;7.60;;;;;;;;;;5043446;28;20064;-72
2022/01/23 13:59:56;;;;;;;18.00;7.53;;;;;;;;;;5046017;28;20132;-72
2022/01/23 14:02:27;;;;;;;21.48;8.23;;;;;;;;;;5049798;28;20584;-72
2022/01/23 14:04:57;;;;;;;25.30;8.95;;;;;;;;;;5045852;28;20048;-72
2022/01/23 14:07:27;;;;;;;17.27;7.40;;;;;;;;;;5047306;28;20535;-72
2022/01/23 14:09:58;;;;;;;19.63;7.15;;;;;;;;;;5042920;28;20140;-72
2022/01/23 14:12:28;;;;;;;21.23;8.45;;;;;;;;;;5049559;28;20555;-72
2022/01/23 14:15:29;;;;;;;21.90;8.10;;;;;;;;;;4018801;28;10002052;-73
2022/01/23 14:18:00;;;;;;;21.42;6.97;;;;;;;;;;2086507;28;10001987;-73
2022/01/23 14:20:29;;;;;;;20.92;7.65;;;;;;;;;;5037476;28;20049;-73
2022/01/23 14:23:00;;;;;;;20.25;7.55;;;;;;;;;;5062728;28;20091;-72
2022/01/23 14:25:30;;;;;;;20.17;7.03;;;;;;;;;;5058904;28;20399;-73
2022/01/23 14:28:04;;;;;;;16.00;6.75;;;;;;;;;;5063271;28;20514;-72
2022/01/23 14:30:34;;;;;;;20.45;8.05;;;;;;;;;;5026324;28;20081;-73
2022/01/23 14:33:13;;;;;;;21.10;8.05;;;;;;;;;;5061841;28;20442;-73
2022/01/23 14:35:42;;;;;;;21.40;7.85;;;;;;;;;;5060399;28;20056;-73
2022/01/23 14:38:12;;;;;;;22.00;7.38;;;;;;;;;;5050841;28;20041;-73
2022/01/23 14:40:52;;;;;;;20.95;7.85;;;;;;;;;;5057052;28;20532;-74
2022/01/23 14:43:21;;;;;;;18.92;7.80;;;;;;;;;;5056915;28;20060;-74
2022/01/23 14:45:53;;;;;;;19.75;7.22;;;;;;;;;;5062179;28;20492;-74
2022/01/23 14:48:21;;;;;;;24.25;7.88;;;;;;;;;;5056810;28;22268;-74
2022/01/23 14:50:53;;;;;;;21.73;8.50;;;;;;;;;;5058168;28;20420;-74
2022/01/23 14:53:23;;;;;;;21.13;8.05;;;;;;;;;;5055331;28;20092;-74
2022/01/23 14:55:54;;;;;;;19.08;8.93;;;;;;;;;;5066562;28;20076;-73
2022/01/23 14:58:23;;;;;;;20.27;7.93;;;;;;;;;;5050925;28;20053;-74
2022/01/23 15:00:52;;;;;;;16.90;6.93;;;;;;;;;;5065436;28;20045;-74
2022/01/23 15:03:21;;;;;;;15.13;6.18;;;;;;;;;;5063978;28;20052;-74
2022/01/23 15:05:50;;;;;;;20.60;7.72;;;;;;;;;;5067897;28;20045;-73
2022/01/23 15:08:22;;;;;;;17.77;7.35;;;;;;;;;;5055615;28;20052;-73
2022/01/23 15:10:51;;;;;;;21.60;7.70;;;;;;;;;;5068032;28;20060;-73
2022/01/23 15:13:22;;;;;;;19.95;8.27;;;;;;;;;;5064123;28;20131;-73
2022/01/23 15:15:51;;;;;;;20.42;7.65;;;;;;;;;;5064061;28;20048;-74
2022/01/23 15:18:21;;;;;;;17.45;7.45;;;;;;;;;;5060588;28;20430;-73
2022/01/23 15:20:50;;;;;;;20.27;7.85;;;;;;;;;;5070699;28;20139;-73
2022/01/23 15:23:19;;;;;;;17.58;8.07;;;;;;;;;;5052797;28;20156;-73
2022/01/23 15:25:49;;;;;;;19.70;7.38;;;;;;;;;;5053377;28;20053;-73
2022/01/23 15:28:18;;;;;;;21.75;7.88;;;;;;;;;;5052003;28;20453;-73
2022/01/23 15:30:49;;;;;;;20.23;7.45;;;;;;;;;;5048384;28;20055;-73
2022/01/23 15:33:18;;;;;;;22.15;8.52;;;;;;;;;;5055089;28;20052;-73
2022/01/23 15:35:47;;;;;;;22.52;7.70;;;;;;;;;;5059317;28;20322;-74
2022/01/23 15:38:16;;;;;;;20.33;7.70;;;;;;;;;;5052627;28;20048;-73
2022/01/23 15:40:45;;;;;;;24.92;7.80;;;;;;;;;;5058385;28;20064;-73
2022/01/23 15:43:14;;;;;;;22.83;8.70;;;;;;;;;;5054024;28;20508;-73
2022/01/23 15:45:45;;;;;;;18.33;7.63;;;;;;;;;;5063883;28;20469;-73
2022/01/23 15:48:15;;;;;;;20.90;7.72;;;;;;;;;;5047758;28;20136;-73
2022/01/23 15:50:44;;;;;;;18.05;7.25;;;;;;;;;;5058695;28;20480;-73
2022/01/23 15:53:13;;;;;;;21.60;7.85;;;;;;;;;;5056562;28;20048;-73
2022/01/23 15:55:41;;;;;;;18.27;7.72;;;;;;;;;;5058754;28;20452;-74
2022/01/23 15:58:10;;;;;;;22.75;8.57;;;;;;;;;;5053806;28;20049;-73
2022/01/23 16:00:39;;;;;;;20.10;7.63;;;;;;;;;;5054728;28;20103;-74
2022/01/23 16:03:08;;;;;;;19.90;7.75;;;;;;;;;;5065422;28;20596;-73
2022/01/23 16:05:38;;;;;;;21.25;8.00;;;;;;;;;;1306452;28;10022818;-74
2022/01/23 16:08:08;;;;;;;20.63;7.40;;;;;;;;;;4009768;28;10001152;-73
2022/01/23 16:10:37;;;;;;;18.05;7.65;;;;;;;;;;5066913;28;20052;-73
2022/01/23 16:13:06;;;;;;;18.98;7.75;;;;;;;;;;5062984;28;20290;-73
2022/01/23 16:15:35;;;;;;;18.88;7.55;;;;;;;;;;5067622;28;20159;-73
2022/01/23 16:18:03;;;;;;;22.33;7.68;;;;;;;;;;5053133;28;20049;-73
2022/01/23 16:20:32;;;;;;;19.35;7.55;;;;;;;;;;5056304;28;20057;-73
2022/01/23 16:23:02;;;;;;;16.95;6.97;;;;;;;;;;5059949;28;20044;-73
2022/01/23 16:25:34;;;;;;;19.38;7.78;;;;;;;;;;5060079;28;20477;-73
2022/01/23 16:28:03;;;;;;;16.90;6.45;;;;;;;;;;5049087;28;20623;-73
2022/01/23 16:30:43;;;;;;;20.30;7.78;;;;;;;;;;5049682;28;20508;-73
2022/01/23 16:33:12;;;;;;;18.75;7.25;;;;;;;;;;5055582;28;20044;-73
2022/01/23 16:35:40;;;;;;;20.10;8.40;;;;;;;;;;5052416;28;20120;-73
2022/01/23 16:38:11;;;;;;;20.77;7.63;;;;;;;;;;5061117;28;20051;-75
2022/01/23 16:40:41;;;;;;;19.42;6.55;;;;;;;;;;5056841;28;20040;-73
2022/01/23 16:43:09;;;;;;;21.20;8.02;;;;;;;;;;5060711;28;20056;-73
2022/01/23 16:45:39;;;;;;;20.00;7.93;;;;;;;;;;5057859;28;20053;-73
2022/01/23 16:48:07;;;;;;;15.60;7.70;;;;;;;;;;5061294;28;20036;-73
2022/01/23 16:50:38;;;;;;;18.35;7.80;;;;;;;;;;5060956;28;20990;-73
2022/01/23 16:53:06;;;;;;;19.13;7.47;;;;;;;;;;5053228;28;20057;-73
2022/01/23 16:55:36;;;;;;;17.80;7.18;;;;;;;;;;5054919;28;20052;-73
2022/01/23 16:58:05;;;;;;;18.02;6.75;;;;;;;;;;5052183;28;20099;-74
2022/01/23 17:00:34;;;;;;;17.40;8.35;;;;;;;;;;5057221;28;20061;-73
2022/01/23 17:03:10;;;;;;;16.98;6.60;;;;;;;;;;5052851;28;20118;-74
2022/01/23 17:05:42;;;;;;;20.58;7.70;;;;;;;;;;5065570;28;20055;-73
2022/01/23 17:08:18;;;;;;;22.85;7.47;;;;;;;;;;5057056;28;20078;-73
2022/01/23 17:10:50;;;;;;;19.77;7.40;;;;;;;;;;5048797;28;20102;-73
2022/01/23 17:13:18;;;;;;;22.63;7.88;;;;;;;;;;5058866;28;20048;-73
2022/01/23 17:15:47;;;;;;;20.42;7.57;;;;;;;;;;5051486;28;20048;-72
2022/01/23 17:18:15;;;;;;;19.55;7.30;;;;;;;;;;5052908;28;20503;-73
2022/01/23 17:20:44;;;;;;;18.85;7.50;;;;;;;;;;5059325;28;20056;-73
2022/01/23 17:23:12;;;;;;;18.08;7.05;;;;;;;;;;5053376;28;20052;-72
2022/01/23 17:25:41;;;;;;;20.02;8.02;;;;;;;;;;5064868;28;20139;-74